Radiance Of The Seas — C6SE7 — position and weather

sailwx.info

Track history (hours):
 
Tides and Currents Weather Stations Pressure Air Temp Water Temp Dewpoint Dewpoint Depression Visibility Wind Speed Wind Dir Waves Ship Positions

Radiance Of The Seas

Operator: Royal Caribbean Cruises Ltd

Last reported at 2018-Dec-11 07:00 UTC. Time now 2018-Dec-11 07:25 UTC.
Position S 33°58' E 151°43'.

Type: Passenger vessel. MMSI: 311319000.

Date/timePositionNaut miles runAvg speedWind from/ knotsBaromVisibWave heightAir tempDewpointWater temp
2018-Dec-11 07:00S 33°58' E 151°43'1020.1
2018-Dec-11 06:30S 33°55' E 151°32'1019.6
2018-Dec-11 06:01S 33°51' E 151°21'5 9.5
2018-Dec-11 05:30S 33°51' E 151°15'2 4.0
2018-Dec-11 04:58S 33°52' E 151°13'0 0.0
2018-Dec-11 04:28S 33°52' E 151°13'0 0.0
2018-Dec-11 03:58S 33°52' E 151°13'0 0.0
2018-Dec-11 03:28S 33°52' E 151°13'0 0.0
2018-Dec-11 02:58S 33°52' E 151°13'0 0.0
2018-Dec-11 02:28S 33°52' E 151°13'0 0.0
2018-Dec-11 01:58S 33°52' E 151°13'0 0.0
2018-Dec-11 01:28S 33°52' E 151°13'0 0.0
2018-Dec-11 00:58S 33°52' E 151°13'0 0.0
2018-Dec-11 00:28S 33°52' E 151°13'0 0.0
2018-Dec-10 23:58S 33°52' E 151°13'0 0.0
2018-Dec-10 23:28S 33°52' E 151°13'0 0.0
2018-Dec-10 22:58S 33°52' E 151°13'0 0.0
2018-Dec-10 22:28S 33°52' E 151°13'0 0.0
2018-Dec-10 21:58S 33°52' E 151°13'0 0.0
2018-Dec-10 21:28S 33°52' E 151°13'0 0.0
2018-Dec-10 20:58S 33°52' E 151°13'0 0.0
2018-Dec-10 20:28S 33°52' E 151°13'0 0.0
2018-Dec-10 19:58S 33°52' E 151°13'0 0.0
2018-Dec-10 19:28S 33°52' E 151°13'0 0.2
2018-Dec-10 19:00S 33°51' E 151°13'3 6.9
2018-Dec-10 18:30S 33°50' E 151°16'612.2
2018-Dec-10 18:01S 33°51' E 151°23'611.4
2018-Dec-10 17:31S 33°53' E 151°30'611.1
2018-Dec-10 17:01S 33°56' E 151°35'714.9
2018-Dec-10 16:30S 34°01' E 151°42'6414.2
2018-Dec-10 12:00S 34°42' E 152°42'12916.1 160 / 171020.0 20.0 24.0
2018-Dec-10 04:00S 36°06' E 154°42'13915.4 330 / 161017.3 5.4 20.8 20.5
2018-Dec-09 19:00S 37°36' E 156°54'12217.5 360 / 261020.1 5.4 18.6 18.9
2018-Dec-09 12:00S 38°54' E 158°54'1818.4 350 / 171024.0 18.2 19.6
2018-Dec-09 11:00S 39°06' E 159°12'9215.3 350 / 161025.0 5.4 17.015.419.0
2018-Dec-09 05:00S 40°06' E 160°42'12017.1 310 / 151024.710.8 16.9 16.9
2018-Dec-08 22:00S 41°24' E 162°42'17515.9 320 / 221026.0 5.4 15.9 15.3
2018-Dec-08 11:00S 43°18' E 165°42'6015.0 340 / 201027.0 14.0 16.0
2018-Dec-08 07:00S 43°54' E 166°48'3919.3 340 / 201026.0 2.2 14.014.014.0
2018-Dec-08 05:00S 44°18' E 167°30'12510.4 350 / 121026.910.8 14.0 14.0
2018-Dec-07 17:00S 46°18' E 166°42'4618.3 330 / 431020.0 15.0 15.0
2018-Dec-07 14:29S 46°33' E 167°45'918.6
2018-Dec-07 14:00S 46°36' E 167°57'918.5
2018-Dec-07 13:30S 46°39' E 168°10'917.9
2018-Dec-07 13:01S 46°41' E 168°22'917.2
2018-Dec-07 12:29S 46°42' E 168°35'816.8
2018-Dec-07 12:00S 46°43' E 168°47'917.0
2018-Dec-07 11:30S 46°45' E 168°59'918.1
2018-Dec-07 11:00S 46°48' E 169°11'10675.0
2018-Dec-07 11:00S 46°42' E 169°00'1938.3 280 / 231022.0 13.1 13.3
2018-Dec-07 10:30S 46°51' E 169°24'917.1
2018-Dec-07 10:00S 46°53' E 169°36'77 5.1
2018-Dec-06 19:00S 45°48' E 170°36'47 5.8 1023.610.8 10.9 12.2
2018-Dec-06 11:00S 45°12' E 171°18'44 7.4 200 / 111024.0 10.5 13.6
2018-Dec-06 05:00S 44°36' E 171°54'158 8.8 180 / 371018.310.8 10.5 13.4
2018-Dec-05 11:00S 42°30' E 174°06'21 9.5 180 / 111009.0 13.0 16.0
2018-Dec-05 08:48S 42°12' E 174°20'413.8
2018-Dec-05 08:30S 42°08' E 174°22'713.7
2018-Dec-05 08:00S 42°02' E 174°27'713.9
2018-Dec-05 07:30S 41°56' E 174°31'714.4
2018-Dec-05 07:00S 41°50' E 174°35'714.0
2018-Dec-05 06:30S 41°43' E 174°40'713.6
2018-Dec-05 06:00S 41°37' E 174°44'713.6
2018-Dec-05 05:30S 41°31' E 174°46'713.4
2018-Dec-05 05:00S 41°24' E 174°49'712.0
2018-Dec-05 04:23S 41°17' E 174°50'3 6.8
2018-Dec-05 04:00S 41°16' E 174°47'0 0.0
2018-Dec-05 03:28S 41°16' E 174°47'0 0.0
2018-Dec-05 02:55S 41°16' E 174°47'0 0.0
2018-Dec-05 02:28S 41°16' E 174°47'0 0.0
2018-Dec-05 01:55S 41°16' E 174°47'0 0.0
2018-Dec-05 01:28S 41°16' E 174°47'0 0.0
2018-Dec-05 00:58S 41°16' E 174°47'0 0.0
2018-Dec-05 00:28S 41°16' E 174°47'0 0.0
2018-Dec-04 23:58S 41°16' E 174°47'0 0.0
2018-Dec-04 23:28S 41°16' E 174°47'0 0.0
2018-Dec-04 22:58S 41°16' E 174°47'0 0.0
2018-Dec-04 22:28S 41°16' E 174°47'0 0.0
2018-Dec-04 21:58S 41°16' E 174°47'0 0.0
2018-Dec-04 21:25S 41°16' E 174°47'0 0.0
2018-Dec-04 20:58S 41°16' E 174°47'0 0.0
2018-Dec-04 20:28S 41°16' E 174°47'0 0.0
2018-Dec-04 19:55S 41°16' E 174°47'0 0.0
2018-Dec-04 19:28S 41°16' E 174°47'0 0.0
2018-Dec-04 18:58S 41°16' E 174°47'1 1.8
2018-Dec-04 18:30S 41°16' E 174°48'710.3
2018-Dec-04 17:49S 41°23' E 174°50'1 3.8
2018-Dec-04 17:30S 41°24' E 174°49'816.3
2018-Dec-04 17:00S 41°31' E 174°55'1019.3
2018-Dec-04 16:30S 41°37' E 175°04'918.0
2018-Dec-04 16:00S 41°43' E 175°14'1118.1
2018-Dec-04 15:24S 41°49' E 175°26'1117.5
2018-Dec-04 14:48S 41°47' E 175°40'6817.8
2018-Dec-04 11:00S 40°54' E 176°36'101 5.6 010 / 221003.0 16.0 18.0
2018-Dec-03 17:00S 39°24' E 177°36'10918.2 020 / 221004.310.8 17.6 17.5
2018-Dec-03 11:00S 37°48' E 178°42'5520.0 360 / 221009.0 18.0 19.0
2018-Dec-03 08:14S 37°25' E 177°39'521.0
2018-Dec-03 07:59S 37°25' E 177°32'1020.9
2018-Dec-03 07:31S 37°24' E 177°20'1020.9
2018-Dec-03 07:01S 37°23' E 177°07'1020.6
2018-Dec-03 06:31S 37°25' E 176°54'1020.8
2018-Dec-03 06:01S 37°27' E 176°41'1020.7
2018-Dec-03 05:31S 37°29' E 176°28'1019.8
2018-Dec-03 05:01S 37°33' E 176°17'612.7
2018-Dec-03 04:31S 37°37' E 176°10'2 3.2
2018-Dec-03 03:58S 37°39' E 176°11'0 0.0
2018-Dec-03 03:28S 37°39' E 176°11'0 0.0
2018-Dec-03 02:58S 37°39' E 176°11'0 0.0
2018-Dec-03 02:25S 37°39' E 176°11'0 0.0
2018-Dec-03 01:58S 37°39' E 176°11'0 0.0
2018-Dec-03 01:28S 37°39' E 176°11'0 0.0
2018-Dec-03 00:58S 37°39' E 176°11'0 0.0
2018-Dec-03 00:28S 37°39' E 176°11'0 0.0
2018-Dec-02 23:58S 37°39' E 176°11'0 0.0
2018-Dec-02 23:25S 37°39' E 176°11'0 0.0
2018-Dec-02 22:58S 37°39' E 176°11'0 0.0
2018-Dec-02 22:28S 37°39' E 176°11'0 0.0
2018-Dec-02 21:58S 37°39' E 176°11'0 0.0
2018-Dec-02 21:28S 37°39' E 176°11'5 9.6
2018-Dec-02 21:00S 37°36' E 176°06'5236.3 030 / 91007.2 2.2 16.7 19.3
2018-Dec-02 20:58S 37°39' E 176°11'0 0.0
2018-Dec-02 20:28S 37°39' E 176°11'0 0.0
2018-Dec-02 19:58S 37°39' E 176°11'0 0.0
2018-Dec-02 19:28S 37°39' E 176°11'0 0.0
2018-Dec-02 18:58S 37°39' E 176°11'0 0.0
2018-Dec-02 18:28S 37°39' E 176°11'0 0.0
2018-Dec-02 17:58S 37°39' E 176°11'0 0.0
2018-Dec-02 17:28S 37°39' E 176°11'0 0.0
2018-Dec-02 17:00S 37°39' E 176°11'2 3.2
2018-Dec-02 16:30S 37°37' E 176°10'612.5
2018-Dec-02 16:00S 37°31' E 176°11'7915.8
2018-Dec-02 11:00S 36°12' E 176°00'10217.0 040 / 101008.0 17.6 19.6
2018-Dec-02 05:00S 35°06' E 174°24'21 1.5 010 / 191006.0 5.4 18.0 17.0
2018-Dec-01 15:00S 35°12' E 174°48'30 7.6 360 / 161008.0 18.0 19.0
2018-Dec-01 11:00S 35°42' E 174°54'3015.0 010 / 161009.0 17.5 19.2
2018-Dec-01 09:00S 36°12' E 174°54'   010 / 201009.0 5.4 18.016.419.0
Track history (hours):
 
Tides and Currents Weather Stations Pressure Air Temp Water Temp Dewpoint Dewpoint Depression Visibility Wind Speed Wind Dir Waves Ship Positions

Radiance Of The Seas

Operator: Royal Caribbean Cruises Ltd

Last reported at 2018-Dec-11 07:00 UTC. Time now 2018-Dec-11 07:25 UTC.
Position S 33°58' E 151°43'.

Type: Passenger vessel. MMSI: 311319000.

Date/timePositionNaut miles runAvg speedWind from/ knotsBaromVisibWave heightAir tempDewpointWater temp
2018-Dec-11 07:00S 33°58' E 151°43'1020.1
2018-Dec-11 06:30S 33°55' E 151°32'1019.6
2018-Dec-11 06:01S 33°51' E 151°21'5 9.5
2018-Dec-11 05:30S 33°51' E 151°15'2 4.0
2018-Dec-11 04:58S 33°52' E 151°13'0 0.0
2018-Dec-11 04:28S 33°52' E 151°13'0 0.0
2018-Dec-11 03:58S 33°52' E 151°13'0 0.0
2018-Dec-11 03:28S 33°52' E 151°13'0 0.0
2018-Dec-11 02:58S 33°52' E 151°13'0 0.0
2018-Dec-11 02:28S 33°52' E 151°13'0 0.0
2018-Dec-11 01:58S 33°52' E 151°13'0 0.0
2018-Dec-11 01:28S 33°52' E 151°13'0 0.0
2018-Dec-11 00:58S 33°52' E 151°13'0 0.0
2018-Dec-11 00:28S 33°52' E 151°13'0 0.0
2018-Dec-10 23:58S 33°52' E 151°13'0 0.0
2018-Dec-10 23:28S 33°52' E 151°13'0 0.0
2018-Dec-10 22:58S 33°52' E 151°13'0 0.0
2018-Dec-10 22:28S 33°52' E 151°13'0 0.0
2018-Dec-10 21:58S 33°52' E 151°13'0 0.0
2018-Dec-10 21:28S 33°52' E 151°13'0 0.0
2018-Dec-10 20:58S 33°52' E 151°13'0 0.0
2018-Dec-10 20:28S 33°52' E 151°13'0 0.0
2018-Dec-10 19:58S 33°52' E 151°13'0 0.0
2018-Dec-10 19:28S 33°52' E 151°13'0 0.2
2018-Dec-10 19:00S 33°51' E 151°13'3 6.9
2018-Dec-10 18:30S 33°50' E 151°16'612.2
2018-Dec-10 18:01S 33°51' E 151°23'611.4
2018-Dec-10 17:31S 33°53' E 151°30'611.1
2018-Dec-10 17:01S 33°56' E 151°35'714.9
2018-Dec-10 16:30S 34°01' E 151°42'6414.2
2018-Dec-10 12:00S 34°42' E 152°42'12916.1 160 / 171020.0 20.0 24.0
2018-Dec-10 04:00S 36°06' E 154°42'13915.4 330 / 161017.3 5.4 20.8 20.5
2018-Dec-09 19:00S 37°36' E 156°54'12217.5 360 / 261020.1 5.4 18.6 18.9
2018-Dec-09 12:00S 38°54' E 158°54'1818.4 350 / 171024.0 18.2 19.6
2018-Dec-09 11:00S 39°06' E 159°12'9215.3 350 / 161025.0 5.4 17.015.419.0
2018-Dec-09 05:00S 40°06' E 160°42'12017.1 310 / 151024.710.8 16.9 16.9
2018-Dec-08 22:00S 41°24' E 162°42'17515.9 320 / 221026.0 5.4 15.9 15.3
2018-Dec-08 11:00S 43°18' E 165°42'6015.0 340 / 201027.0 14.0 16.0
2018-Dec-08 07:00S 43°54' E 166°48'3919.3 340 / 201026.0 2.2 14.014.014.0
2018-Dec-08 05:00S 44°18' E 167°30'12510.4 350 / 121026.910.8 14.0 14.0
2018-Dec-07 17:00S 46°18' E 166°42'4618.3 330 / 431020.0 15.0 15.0
2018-Dec-07 14:29S 46°33' E 167°45'918.6
2018-Dec-07 14:00S 46°36' E 167°57'918.5
2018-Dec-07 13:30S 46°39' E 168°10'917.9
2018-Dec-07 13:01S 46°41' E 168°22'917.2
2018-Dec-07 12:29S 46°42' E 168°35'816.8
2018-Dec-07 12:00S 46°43' E 168°47'917.0
2018-Dec-07 11:30S 46°45' E 168°59'918.1
2018-Dec-07 11:00S 46°48' E 169°11'10675.0
2018-Dec-07 11:00S 46°42' E 169°00'1938.3 280 / 231022.0 13.1 13.3
2018-Dec-07 10:30S 46°51' E 169°24'917.1
2018-Dec-07 10:00S 46°53' E 169°36'77 5.1
2018-Dec-06 19:00S 45°48' E 170°36'47 5.8 1023.610.8 10.9 12.2
2018-Dec-06 11:00S 45°12' E 171°18'44 7.4 200 / 111024.0 10.5 13.6
2018-Dec-06 05:00S 44°36' E 171°54'158 8.8 180 / 371018.310.8 10.5 13.4
2018-Dec-05 11:00S 42°30' E 174°06'21 9.5 180 / 111009.0 13.0 16.0
2018-Dec-05 08:48S 42°12' E 174°20'413.8
2018-Dec-05 08:30S 42°08' E 174°22'713.7
2018-Dec-05 08:00S 42°02' E 174°27'713.9
2018-Dec-05 07:30S 41°56' E 174°31'714.4
2018-Dec-05 07:00S 41°50' E 174°35'714.0
2018-Dec-05 06:30S 41°43' E 174°40'713.6
2018-Dec-05 06:00S 41°37' E 174°44'713.6
2018-Dec-05 05:30S 41°31' E 174°46'713.4
2018-Dec-05 05:00S 41°24' E 174°49'712.0
2018-Dec-05 04:23S 41°17' E 174°50'3 6.8
2018-Dec-05 04:00S 41°16' E 174°47'0 0.0
2018-Dec-05 03:28S 41°16' E 174°47'0 0.0
2018-Dec-05 02:55S 41°16' E 174°47'0 0.0
2018-Dec-05 02:28S 41°16' E 174°47'0 0.0
2018-Dec-05 01:55S 41°16' E 174°47'0 0.0
2018-Dec-05 01:28S 41°16' E 174°47'0 0.0
2018-Dec-05 00:58S 41°16' E 174°47'0 0.0
2018-Dec-05 00:28S 41°16' E 174°47'0 0.0
2018-Dec-04 23:58S 41°16' E 174°47'0 0.0
2018-Dec-04 23:28S 41°16' E 174°47'0 0.0
2018-Dec-04 22:58S 41°16' E 174°47'0 0.0
2018-Dec-04 22:28S 41°16' E 174°47'0 0.0
2018-Dec-04 21:58S 41°16' E 174°47'0 0.0
2018-Dec-04 21:25S 41°16' E 174°47'0 0.0
2018-Dec-04 20:58S 41°16' E 174°47'0 0.0
2018-Dec-04 20:28S 41°16' E 174°47'0 0.0
2018-Dec-04 19:55S 41°16' E 174°47'0 0.0
2018-Dec-04 19:28S 41°16' E 174°47'0 0.0
2018-Dec-04 18:58S 41°16' E 174°47'1 1.8
2018-Dec-04 18:30S 41°16' E 174°48'710.3
2018-Dec-04 17:49S 41°23' E 174°50'1 3.8
2018-Dec-04 17:30S 41°24' E 174°49'816.3
2018-Dec-04 17:00S 41°31' E 174°55'1019.3
2018-Dec-04 16:30S 41°37' E 175°04'918.0
2018-Dec-04 16:00S 41°43' E 175°14'1118.1
2018-Dec-04 15:24S 41°49' E 175°26'1117.5
2018-Dec-04 14:48S 41°47' E 175°40'6817.8
2018-Dec-04 11:00S 40°54' E 176°36'101 5.6 010 / 221003.0 16.0 18.0
2018-Dec-03 17:00S 39°24' E 177°36'10918.2 020 / 221004.310.8 17.6 17.5
2018-Dec-03 11:00S 37°48' E 178°42'5520.0 360 / 221009.0 18.0 19.0
2018-Dec-03 08:14S 37°25' E 177°39'521.0
2018-Dec-03 07:59S 37°25' E 177°32'1020.9
2018-Dec-03 07:31S 37°24' E 177°20'1020.9
2018-Dec-03 07:01S 37°23' E 177°07'1020.6
2018-Dec-03 06:31S 37°25' E 176°54'1020.8
2018-Dec-03 06:01S 37°27' E 176°41'1020.7
2018-Dec-03 05:31S 37°29' E 176°28'1019.8
2018-Dec-03 05:01S 37°33' E 176°17'612.7
2018-Dec-03 04:31S 37°37' E 176°10'2 3.2
2018-Dec-03 03:58S 37°39' E 176°11'0 0.0
2018-Dec-03 03:28S 37°39' E 176°11'0 0.0
2018-Dec-03 02:58S 37°39' E 176°11'0 0.0
2018-Dec-03 02:25S 37°39' E 176°11'0 0.0
2018-Dec-03 01:58S 37°39' E 176°11'0 0.0
2018-Dec-03 01:28S 37°39' E 176°11'0 0.0
2018-Dec-03 00:58S 37°39' E 176°11'0 0.0
2018-Dec-03 00:28S 37°39' E 176°11'0 0.0
2018-Dec-02 23:58S 37°39' E 176°11'0 0.0
2018-Dec-02 23:25S 37°39' E 176°11'0 0.0
2018-Dec-02 22:58S 37°39' E 176°11'0 0.0
2018-Dec-02 22:28S 37°39' E 176°11'0 0.0
2018-Dec-02 21:58S 37°39' E 176°11'0 0.0
2018-Dec-02 21:28S 37°39' E 176°11'5 9.6
2018-Dec-02 21:00S 37°36' E 176°06'5236.3 030 / 91007.2 2.2 16.7 19.3
2018-Dec-02 20:58S 37°39' E 176°11'0 0.0
2018-Dec-02 20:28S 37°39' E 176°11'0 0.0
2018-Dec-02 19:58S 37°39' E 176°11'0 0.0
2018-Dec-02 19:28S 37°39' E 176°11'0 0.0
2018-Dec-02 18:58S 37°39' E 176°11'0 0.0
2018-Dec-02 18:28S 37°39' E 176°11'0 0.0
2018-Dec-02 17:58S 37°39' E 176°11'0 0.0
2018-Dec-02 17:28S 37°39' E 176°11'0 0.0
2018-Dec-02 17:00S 37°39' E 176°11'2 3.2
2018-Dec-02 16:30S 37°37' E 176°10'612.5
2018-Dec-02 16:00S 37°31' E 176°11'7915.8
2018-Dec-02 11:00S 36°12' E 176°00'10217.0 040 / 101008.0 17.6 19.6
2018-Dec-02 05:00S 35°06' E 174°24'21 1.5 010 / 191006.0 5.4 18.0 17.0
2018-Dec-01 15:00S 35°12' E 174°48'30 7.6 360 / 161008.0 18.0 19.0
2018-Dec-01 11:00S 35°42' E 174°54'3015.0 010 / 161009.0 17.5 19.2
2018-Dec-01 09:00S 36°12' E 174°54'   010 / 201009.0 5.4 18.016.419.0

Dump ship's entire track history